createdAt,value
2023-08-03T00:00:10.533Z,94164.03
2023-08-03T00:03:13.156Z,94151.16
2023-08-03T00:06:15.688Z,94163.31
2023-08-03T00:09:17.764Z,94166.66
2023-08-03T00:12:20.113Z,94167.94
2023-08-03T00:15:22.179Z,94158.47
2023-08-03T00:18:24.289Z,94159.50
2023-08-03T00:21:26.479Z,94167.34
2023-08-03T00:24:28.637Z,94176.53
2023-08-03T00:27:31.360Z,94175.25
2023-08-03T00:30:33.717Z,94160.69
2023-08-03T00:33:35.826Z,94174.03
2023-08-03T00:36:37.874Z,94154.22
2023-08-03T00:39:41.250Z,94165.91
2023-08-03T00:42:43.393Z,94178.06
2023-08-03T00:45:45.562Z,94156.66
2023-08-03T00:48:47.834Z,94167.78
2023-08-03T00:51:49.936Z,94172.81
2023-08-03T00:54:52.126Z,94167.94
2023-08-03T00:57:54.166Z,94150.25
2023-08-03T01:00:56.356Z,94172.81
2023-08-03T01:03:58.552Z,94159.53
2023-08-03T01:07:00.588Z,94140.63
2023-08-03T01:10:03.701Z,94148.03
2023-08-03T01:13:06.017Z,94146.56
2023-08-03T01:16:12.598Z,94150.28
2023-08-03T01:19:15.412Z,94147.38
2023-08-03T01:22:19.028Z,94148.63
2023-08-03T01:25:21.256Z,94141.50
2023-08-03T01:28:23.362Z,94148.81
2023-08-03T01:31:25.665Z,94140.38
2023-08-03T01:34:29.258Z,94132.44
2023-08-03T01:37:31.407Z,94153.94
2023-08-03T01:40:33.539Z,94158.22
2023-08-03T01:43:35.594Z,94157.22
2023-08-03T01:46:37.633Z,94162.34
2023-08-03T01:49:39.758Z,94174.75
2023-08-03T01:52:41.773Z,94150.78
2023-08-03T01:55:46.780Z,94159.78
2023-08-03T01:58:48.832Z,94163.19
2023-08-03T02:01:51.099Z,94166.22
2023-08-03T02:04:53.109Z,94162.06
2023-08-03T02:07:55.826Z,94166.75
2023-08-03T02:10:57.889Z,94152.72
2023-08-03T02:14:00.426Z,94144.09
2023-08-03T02:17:02.815Z,94132.69
2023-08-03T02:20:05.859Z,94131.41
2023-08-03T02:23:07.915Z,94125.47
2023-08-03T02:26:10.042Z,94133.25
2023-08-03T02:29:12.234Z,94150.69
2023-08-03T02:32:14.286Z,94165.47
2023-08-03T02:35:16.489Z,94149.63
2023-08-03T02:38:18.691Z,94155.47
2023-08-03T02:41:20.716Z,94148.97
2023-08-03T02:44:22.849Z,94154.97
2023-08-03T02:47:24.848Z,94159.66
2023-08-03T02:50:27.194Z,94170.25
2023-08-03T02:53:29.187Z,94170.75
2023-08-03T02:56:31.237Z,94166.59
2023-08-03T02:59:33.185Z,94163.72
2023-08-03T03:02:35.334Z,94169.78
2023-08-03T03:05:37.381Z,94181.06
2023-08-03T03:08:39.270Z,94172.56
2023-08-03T03:11:41.262Z,94171.22
2023-08-03T03:14:43.278Z,94170.25
2023-08-03T03:17:45.322Z,94181.19
2023-08-03T03:20:47.286Z,94178.88
2023-08-03T03:23:49.326Z,94184.34
2023-08-03T03:26:51.647Z,94176.91
2023-08-03T03:29:53.623Z,94181.56
2023-08-03T03:32:55.598Z,94172.38
2023-08-03T03:35:57.608Z,94178.88
2023-08-03T03:38:59.578Z,94181.09
2023-08-03T03:42:01.543Z,94191.19
2023-08-03T03:45:03.601Z,94187.72
2023-08-03T03:48:05.732Z,94193.25
2023-08-03T03:51:07.671Z,94194.78
2023-08-03T03:54:09.607Z,94197.44
2023-08-03T03:57:11.725Z,94198.59
2023-08-03T04:00:13.682Z,94202.13
2023-08-03T04:03:15.656Z,94195.25
2023-08-03T04:06:17.736Z,94202.19
2023-08-03T04:09:19.697Z,94204.22
2023-08-03T04:12:21.611Z,94203.09
2023-08-03T04:15:23.804Z,94194.34
2023-08-03T04:18:25.751Z,94199.78
2023-08-03T04:21:27.668Z,94193.66
2023-08-03T04:24:31.819Z,94192.53
2023-08-03T04:27:33.817Z,94193.41
2023-08-03T04:30:35.811Z,94205.38
2023-08-03T04:33:37.683Z,94195.53
2023-08-03T04:36:40.478Z,94180.81
2023-08-03T04:39:42.385Z,94183.56
2023-08-03T04:42:44.365Z,94178.19
2023-08-03T04:45:46.304Z,94179.84
2023-08-03T04:48:48.276Z,94182.88
2023-08-03T04:51:53.023Z,94184.97
2023-08-03T04:54:54.933Z,94174.78
2023-08-03T04:57:56.951Z,94171.41
2023-08-03T05:00:59.005Z,94175.44
2023-08-03T05:04:01.923Z,94171.69
2023-08-03T05:07:04.423Z,94180.31
2023-08-03T05:10:07.176Z,94183.22
2023-08-03T05:13:09.193Z,94194.16
2023-08-03T05:16:11.146Z,94188.66
2023-08-03T05:19:13.173Z,94190.09
2023-08-03T05:22:15.108Z,94188.69
2023-08-03T05:25:17.094Z,94182.13
2023-08-03T05:28:19.056Z,94181.88
2023-08-03T05:31:21.073Z,94194.41
2023-08-03T05:34:23.154Z,94190.81
2023-08-03T05:37:25.141Z,94189.69
2023-08-03T05:40:27.075Z,94192.13
2023-08-03T05:43:29.228Z,94194.88
2023-08-03T05:46:33.552Z,94193.72
2023-08-03T05:49:40.726Z,94202.13
2023-08-03T05:52:43.686Z,94191.63
2023-08-03T05:56:01.075Z,94188.66
2023-08-03T05:59:13.532Z,94197.25
2023-08-03T06:02:33.047Z,94192.47
2023-08-03T06:05:51.089Z,94191.56
2023-08-03T06:08:55.028Z,94198.31
2023-08-03T06:11:57.054Z,94193.84
2023-08-03T06:14:59.009Z,94194.56
2023-08-03T06:18:04.512Z,94180.22
2023-08-03T06:21:06.668Z,94175.72
2023-08-03T06:24:09.164Z,94184.56
2023-08-03T06:27:12.854Z,94175.94
2023-08-03T06:30:15.538Z,94186.38
2023-08-03T06:33:20.066Z,94168.69
2023-08-03T06:36:29.099Z,94176.13
2023-08-03T06:39:34.312Z,94170.88
2023-08-03T06:42:37.257Z,94171.25
2023-08-03T06:45:43.887Z,94167.16
2023-08-03T06:48:46.344Z,94166.72
2023-08-03T06:51:48.421Z,94158.31
2023-08-03T06:54:50.830Z,94169.38
2023-08-03T06:57:54.162Z,94171.50
2023-08-03T07:00:56.293Z,94167.28
2023-08-03T07:03:58.360Z,94172.31
2023-08-03T07:07:03.248Z,94166.91
2023-08-03T07:10:07.145Z,94170.59
2023-08-03T07:13:11.368Z,94179.25
2023-08-03T07:16:25.021Z,94177.00
2023-08-03T07:53:44.622Z,94171.88
2023-08-03T08:06:23.373Z,94189.97
2023-08-03T08:20:19.993Z,94209.28
2023-08-03T08:45:50.829Z,94202.28
2023-08-03T09:02:14.266Z,94212.56
2023-08-03T09:29:58.904Z,94214.84
2023-08-03T09:33:01.469Z,94227.78
2023-08-03T09:45:37.757Z,94222.78
2023-08-03T09:49:14.275Z,94224.69
2023-08-03T09:52:15.420Z,94222.78
2023-08-03T09:55:45.345Z,94228.25
2023-08-03T09:59:05.092Z,94235.69
2023-08-03T10:02:13.115Z,94214.75
2023-08-03T10:05:21.469Z,94214.94
2023-08-03T10:08:31.648Z,94213.94
2023-08-03T10:11:54.979Z,94234.75
2023-08-03T10:14:58.727Z,94243.34
2023-08-03T10:18:06.143Z,94250.91
2023-08-03T10:21:13.659Z,94220.97
2023-08-03T10:24:23.559Z,94230.59
2023-08-03T10:27:26.226Z,94235.34
2023-08-03T10:31:04.974Z,94234.03
2023-08-03T10:34:07.472Z,94214.09
2023-08-03T10:37:16.045Z,94228.44
2023-08-03T10:40:24.634Z,94231.41
2023-08-03T10:43:26.670Z,94219.03
2023-08-03T10:46:35.199Z,94218.91
2023-08-03T10:49:46.402Z,94230.66
2023-08-03T10:52:51.516Z,94238.47
2023-08-03T10:56:16.339Z,94223.97
2023-08-03T10:59:18.401Z,94207.84
2023-08-03T11:02:23.632Z,94224.09
2023-08-03T11:05:25.904Z,94226.25
2023-08-03T11:08:27.971Z,94225.38
2023-08-03T11:11:34.076Z,94213.22
2023-08-03T11:14:38.189Z,94239.34
2023-08-03T11:17:40.285Z,94217.31
2023-08-03T11:20:42.918Z,94218.25
2023-08-03T11:23:47.970Z,94200.16
2023-08-03T11:26:51.412Z,94212.47
2023-08-03T11:29:53.641Z,94222.03
2023-08-03T11:33:02.360Z,94227.63
2023-08-03T11:36:04.986Z,94238.28
2023-08-03T11:39:07.132Z,94231.31
2023-08-03T11:42:09.555Z,94217.66
2023-08-03T11:45:14.012Z,94228.31
2023-08-03T11:48:15.919Z,94246.06
2023-08-03T11:51:20.360Z,94249.72
2023-08-03T11:54:25.700Z,94236.75
2023-08-03T11:57:53.021Z,94249.13
2023-08-03T12:01:03.316Z,94230.31
2023-08-03T12:04:14.456Z,94237.16
2023-08-03T12:10:21.670Z,94243.72
2023-08-03T12:13:24.271Z,94230.16
2023-08-03T12:16:39.109Z,94243.44
2023-08-03T12:19:47.022Z,94245.50
2023-08-03T12:22:49.578Z,94251.59
2023-08-03T12:26:22.595Z,94242.59
2023-08-03T12:29:41.227Z,94256.13
2023-08-03T12:32:47.047Z,94225.91
2023-08-03T12:35:59.638Z,94232.97
2023-08-03T12:39:07.169Z,94252.84
2023-08-03T12:42:13.838Z,94257.13
2023-08-03T12:45:19.237Z,94259.47
2023-08-03T12:48:28.065Z,94253.59
2023-08-03T12:51:33.233Z,94267.88
2023-08-03T12:54:35.536Z,94260.63
2023-08-03T12:57:41.625Z,94278.56
2023-08-03T13:00:48.622Z,94262.88
2023-08-03T13:03:53.435Z,94277.28
2023-08-03T13:06:58.318Z,94274.84
2023-08-03T13:10:02.863Z,94276.25
2023-08-03T13:13:28.287Z,94288.38
2023-08-03T13:16:36.385Z,94287.66
2023-08-03T13:19:42.037Z,94264.41
2023-08-03T13:22:47.190Z,94296.03
2023-08-03T13:25:49.373Z,94271.88
2023-08-03T13:28:54.069Z,94290.63
2023-08-03T13:31:56.286Z,94310.47
2023-08-03T13:35:01.419Z,94311.50
2023-08-03T13:38:03.786Z,94301.28
2023-08-03T13:41:06.551Z,94313.78
2023-08-03T13:44:09.626Z,94323.97
2023-08-03T13:47:15.167Z,94332.00
2023-08-03T13:50:17.707Z,94324.19
2023-08-03T13:53:24.692Z,94298.28
2023-08-03T13:56:32.904Z,94299.88
2023-08-03T13:59:35.472Z,94288.22
2023-08-03T14:02:44.794Z,94301.19
2023-08-03T14:09:12.931Z,94303.19
2023-08-03T14:12:16.716Z,94291.97
2023-08-03T14:21:52.984Z,94324.06
2023-08-03T14:31:16.714Z,94312.47
2023-08-03T14:34:22.032Z,94309.94
2023-08-03T14:37:26.249Z,94324.50
2023-08-03T14:40:32.026Z,94315.94
2023-08-03T14:43:34.256Z,94304.38
2023-08-03T14:46:37.180Z,94303.81
2023-08-03T14:49:43.376Z,94310.84
2023-08-03T14:53:09.631Z,94314.41
2023-08-03T14:59:19.882Z,94306.59
2023-08-03T15:02:24.971Z,94311.00
2023-08-03T15:05:30.394Z,94315.53
2023-08-03T15:08:35.711Z,94322.44
2023-08-03T15:11:39.390Z,94298.16
2023-08-03T15:14:48.503Z,94293.53
2023-08-03T15:17:58.676Z,94301.81
2023-08-03T15:21:01.612Z,94304.81
2023-08-03T15:24:29.696Z,94334.22
2023-08-03T15:35:26.891Z,94321.50
2023-08-03T15:38:33.634Z,94334.88
2023-08-03T15:41:41.261Z,94339.63
2023-08-03T15:44:45.462Z,94348.84
2023-08-03T15:51:09.906Z,94340.75
2023-08-03T15:54:20.798Z,94327.44
2023-08-03T15:57:30.142Z,94335.78
2023-08-03T16:00:36.991Z,94315.25
2023-08-03T16:03:43.049Z,94332.31
2023-08-03T16:06:49.492Z,94327.88
2023-08-03T16:09:51.809Z,94332.28
2023-08-03T16:12:57.379Z,94328.81
2023-08-03T16:16:03.928Z,94340.28
2023-08-03T16:19:09.493Z,94360.25
2023-08-03T16:22:11.785Z,94348.44
2023-08-03T16:25:19.061Z,94369.72
2023-08-03T16:28:22.351Z,94379.28
2023-08-03T16:31:38.258Z,94377.97
2023-08-03T16:37:53.316Z,94378.19
2023-08-03T16:41:04.275Z,94370.16
2023-08-03T16:44:08.628Z,94346.69
2023-08-03T16:47:10.904Z,94346.16
2023-08-03T16:50:15.760Z,94360.47
2023-08-03T16:53:25.331Z,94362.66
2023-08-03T16:56:27.510Z,94382.63
2023-08-03T16:59:31.942Z,94364.28
2023-08-03T17:02:39.935Z,94363.22
2023-08-03T17:05:44.251Z,94380.00
2023-08-03T17:08:49.084Z,94359.19
2023-08-03T17:11:55.744Z,94366.78
2023-08-03T17:14:57.994Z,94386.75
2023-08-03T17:18:03.270Z,94366.50
2023-08-03T17:21:08.856Z,94369.47
2023-08-03T17:24:11.044Z,94384.59
2023-08-03T17:27:13.135Z,94369.41
2023-08-03T17:30:15.313Z,94380.22
2023-08-03T17:33:22.363Z,94372.84
2023-08-03T17:36:25.409Z,94384.69
2023-08-03T17:39:27.704Z,94391.09
2023-08-03T17:42:33.672Z,94384.03
2023-08-03T17:45:39.594Z,94375.88
2023-08-03T17:48:42.008Z,94382.88
2023-08-03T17:51:44.913Z,94389.38
2023-08-03T17:54:47.330Z,94381.69
2023-08-03T17:57:52.301Z,94382.75
2023-08-03T18:00:54.471Z,94363.56
2023-08-03T18:03:56.638Z,94380.81
2023-08-03T18:06:59.634Z,94385.34
2023-08-03T18:10:05.740Z,94386.50
2023-08-03T18:13:08.056Z,94391.06
2023-08-03T18:16:14.956Z,94395.50
2023-08-03T18:19:18.221Z,94410.34
2023-08-03T18:22:20.498Z,94417.06
2023-08-03T18:25:22.454Z,94403.44
2023-08-03T18:28:24.893Z,94417.63
2023-08-03T18:31:26.943Z,94429.19
2023-08-03T18:34:29.672Z,94427.66
2023-08-03T18:37:31.692Z,94438.31
2023-08-03T18:40:33.962Z,94446.78
2023-08-03T18:43:37.030Z,94450.81
2023-08-03T18:46:39.442Z,94462.50
2023-08-03T18:49:44.297Z,94460.13
2023-08-03T18:52:46.712Z,94466.28
2023-08-03T18:55:48.907Z,94471.03
2023-08-03T18:58:55.634Z,94481.59
2023-08-03T19:01:57.769Z,94482.41
2023-08-03T19:04:59.932Z,94484.75
2023-08-03T19:08:06.914Z,94492.09
2023-08-03T19:11:11.741Z,94494.00
2023-08-03T19:14:13.719Z,94502.06
2023-08-03T19:17:15.929Z,94496.88
2023-08-03T19:20:17.921Z,94499.56
2023-08-03T19:23:19.867Z,94506.22
2023-08-03T19:26:22.216Z,94510.97
2023-08-03T19:29:24.302Z,94501.72
2023-08-03T19:32:26.434Z,94503.06
2023-08-03T19:35:29.464Z,94508.13
2023-08-03T19:38:32.652Z,94512.34
2023-08-03T19:41:34.518Z,94510.25
2023-08-03T19:44:37.562Z,94501.06
2023-08-03T19:47:39.482Z,94511.94
2023-08-03T19:53:46.384Z,94512.97
2023-08-03T19:56:49.003Z,94510.56
2023-08-03T20:09:10.995Z,94489.50
2023-08-03T20:12:13.179Z,94487.00
2023-08-03T20:15:15.227Z,94504.28
2023-08-03T20:21:22.060Z,94501.31
2023-08-03T20:24:24.224Z,94497.34
2023-08-03T20:27:28.381Z,94497.84
2023-08-03T20:30:31.435Z,94468.56
2023-08-03T20:33:33.472Z,94488.78
2023-08-03T20:36:36.238Z,94486.53
2023-08-03T20:39:38.985Z,94501.16
2023-08-03T20:42:42.586Z,94499.13
2023-08-03T20:48:52.545Z,94494.03
2023-08-03T20:51:54.845Z,94500.81
2023-08-03T20:54:57.905Z,94506.09
2023-08-03T20:58:00.809Z,94499.78
2023-08-03T21:01:02.902Z,94491.94
2023-08-03T21:04:05.475Z,94506.28
2023-08-03T21:07:07.728Z,94503.03
2023-08-03T21:13:16.287Z,94501.63
2023-08-03T21:16:18.430Z,94502.59
2023-08-03T21:19:23.380Z,94513.88
2023-08-03T21:22:25.310Z,94515.13
2023-08-03T21:25:27.252Z,94507.00
2023-08-03T21:28:29.235Z,94519.22
2023-08-03T21:31:31.218Z,94520.34
2023-08-03T21:34:34.178Z,94516.63
2023-08-03T21:37:37.789Z,94518.47
2023-08-03T21:40:39.815Z,94524.28
2023-08-03T21:43:41.721Z,94529.88
2023-08-03T21:46:43.644Z,94525.72
2023-08-03T21:49:45.630Z,94536.88
2023-08-03T21:52:47.498Z,94528.38
2023-08-03T21:55:49.473Z,94529.78
2023-08-03T21:58:52.027Z,94524.97
2023-08-03T22:01:55.613Z,94518.00
2023-08-03T22:04:57.598Z,94534.41
2023-08-03T22:07:59.533Z,94535.72
2023-08-03T22:11:01.493Z,94543.84
2023-08-03T22:14:03.396Z,94547.84
2023-08-03T22:17:05.539Z,94551.59
2023-08-03T22:20:07.886Z,94546.63
2023-08-03T22:23:09.757Z,94540.03
2023-08-03T22:26:17.121Z,94554.88
2023-08-03T22:29:19.065Z,94536.09
2023-08-03T22:32:20.995Z,94547.47
2023-08-03T22:35:22.905Z,94541.34
2023-08-03T22:38:24.754Z,94530.06
2023-08-03T22:41:26.688Z,94525.63
2023-08-03T22:44:28.609Z,94523.72
2023-08-03T22:47:36.066Z,94526.13
2023-08-03T22:50:47.046Z,94522.75
2023-08-03T22:53:49.295Z,94518.94
2023-08-03T22:56:51.226Z,94532.28
2023-08-03T22:59:54.222Z,94524.03
2023-08-03T23:02:56.413Z,94521.16
2023-08-03T23:05:58.367Z,94508.78
2023-08-03T23:09:00.276Z,94506.78
2023-08-03T23:12:02.129Z,94510.44
2023-08-03T23:15:04.381Z,94518.28
2023-08-03T23:18:06.533Z,94507.56
2023-08-03T23:21:08.509Z,94495.94
2023-08-03T23:24:10.332Z,94495.91
2023-08-03T23:27:12.141Z,94513.69
2023-08-03T23:30:14.010Z,94519.66
2023-08-03T23:33:15.916Z,94518.75
2023-08-03T23:36:17.924Z,94507.81
2023-08-03T23:39:20.002Z,94503.44
2023-08-03T23:42:21.841Z,94492.72
2023-08-03T23:45:23.678Z,94503.78
2023-08-03T23:48:25.479Z,94512.28
2023-08-03T23:51:27.368Z,94512.59
2023-08-03T23:54:29.189Z,94517.47
2023-08-03T23:57:31.038Z,94514.78
